<?xml version="1.0" encoding="utf-8"?>
<gpx xmlns:xsi="http://www.w3.org/2001/XMLSchema-instance" xmlns:xsd="http://www.w3.org/2001/XMLSchema" version="1.1" creator="Shapelink.com" xmlns="http://www.topografix.com/GPX/1/1" xmlns:gpxtpx="http://www.garmin.com/xmlschemas/TrackPointExtension/v1">
  <metadata>
    <name>Löpning 10.10 km, 2019-01-26</name>
    <desc></desc>
    <author><name>Marian Moron</name></author> 
    <time>2019-01-26T11:27:29Z</time>
  </metadata>
  <trk>
    <name>Löpning 10.10 km, 2019-01-26</name>
    <trkseg>
      <trkpt lat="51.230293164084" lon="4.458636956789">
        <ele>0</ele>
        <time>2019-01-26T11:27:29Z</time>
      </trkpt>
      <trkpt lat="51.230485863965" lon="4.458564118078">
        <ele>0</ele>
        <time>2019-01-26T11:27:40Z</time>
      </trkpt>
      <trkpt lat="51.230677809475" lon="4.458492955747">
        <ele>0</ele>
        <time>2019-01-26T11:27:49Z</time>
      </trkpt>
      <trkpt lat="51.230862127456" lon="4.458476275766">
        <ele>0</ele>
        <time>2019-01-26T11:27:56Z</time>
      </trkpt>
      <trkpt lat="51.231054827337" lon="4.458443502537">
        <ele>0</ele>
        <time>2019-01-26T11:28:04Z</time>
      </trkpt>
      <trkpt lat="51.231231601608" lon="4.45835943208">
        <ele>2.2</ele>
        <time>2019-01-26T11:28:11Z</time>
      </trkpt>
      <trkpt lat="51.231329166924" lon="4.458347362144">
        <ele>2.8</ele>
        <time>2019-01-26T11:28:14Z</time>
      </trkpt>
      <trkpt lat="51.231426648421" lon="4.458315175648">
        <ele>3</ele>
        <time>2019-01-26T11:28:18Z</time>
      </trkpt>
      <trkpt lat="51.231440730013" lon="4.458332023267">
        <ele>2.8</ele>
        <time>2019-01-26T11:28:20Z</time>
      </trkpt>
      <trkpt lat="51.231522621176" lon="4.458612397822">
        <ele>3</ele>
        <time>2019-01-26T11:28:26Z</time>
      </trkpt>
      <trkpt lat="51.231600153751" lon="4.458967203649">
        <ele>3.6</ele>
        <time>2019-01-26T11:28:34Z</time>
      </trkpt>
      <trkpt lat="51.231647595305" lon="4.4592210914">
        <ele>3.8</ele>
        <time>2019-01-26T11:28:41Z</time>
      </trkpt>
      <trkpt lat="51.231710208098" lon="4.459574891399">
        <ele>4.8</ele>
        <time>2019-01-26T11:28:49Z</time>
      </trkpt>
      <trkpt lat="51.231763433163" lon="4.459878483817">
        <ele>5.6</ele>
        <time>2019-01-26T11:28:57Z</time>
      </trkpt>
      <trkpt lat="51.231821938825" lon="4.460183249701">
        <ele>6.4</ele>
        <time>2019-01-26T11:29:05Z</time>
      </trkpt>
      <trkpt lat="51.231859825013" lon="4.460495475476">
        <ele>7.2</ele>
        <time>2019-01-26T11:29:15Z</time>
      </trkpt>
      <trkpt lat="51.231816909685" lon="4.460801833921">
        <ele>9.6</ele>
        <time>2019-01-26T11:29:25Z</time>
      </trkpt>
      <trkpt lat="51.231776425108" lon="4.461114227334">
        <ele>13.2</ele>
        <time>2019-01-26T11:29:34Z</time>
      </trkpt>
      <trkpt lat="51.231756895281" lon="4.461246326078">
        <ele>14</ele>
        <time>2019-01-26T11:29:39Z</time>
      </trkpt>
      <trkpt lat="51.231645751287" lon="4.461487808617">
        <ele>12.8</ele>
        <time>2019-01-26T11:29:49Z</time>
      </trkpt>
      <trkpt lat="51.231585066331" lon="4.461788048275">
        <ele>10.6</ele>
        <time>2019-01-26T11:29:56Z</time>
      </trkpt>
      <trkpt lat="51.231588922005" lon="4.462107063389">
        <ele>8.4</ele>
        <time>2019-01-26T11:30:03Z</time>
      </trkpt>
      <trkpt lat="51.231575510965" lon="4.462401351898">
        <ele>6.2</ele>
        <time>2019-01-26T11:30:10Z</time>
      </trkpt>
      <trkpt lat="51.2315474316" lon="4.46269874171">
        <ele>3.8</ele>
        <time>2019-01-26T11:30:17Z</time>
      </trkpt>
      <trkpt lat="51.231568470169" lon="4.463015158435">
        <ele>2</ele>
        <time>2019-01-26T11:30:24Z</time>
      </trkpt>
      <trkpt lat="51.231499068037" lon="4.463319421405">
        <ele>0</ele>
        <time>2019-01-26T11:30:34Z</time>
      </trkpt>
      <trkpt lat="51.231393791373" lon="4.463580433771">
        <ele>0</ele>
        <time>2019-01-26T11:30:41Z</time>
      </trkpt>
      <trkpt lat="51.23128507813" lon="4.463806493614">
        <ele>0</ele>
        <time>2019-01-26T11:30:48Z</time>
      </trkpt>
      <trkpt lat="51.231278456429" lon="4.464117545923">
        <ele>0</ele>
        <time>2019-01-26T11:30:55Z</time>
      </trkpt>
      <trkpt lat="51.231276025678" lon="4.46441367845">
        <ele>0</ele>
        <time>2019-01-26T11:31:02Z</time>
      </trkpt>
      <trkpt lat="51.231345176353" lon="4.464719031067">
        <ele>0</ele>
        <time>2019-01-26T11:31:08Z</time>
      </trkpt>
      <trkpt lat="51.23132866401" lon="4.465035531611">
        <ele>0</ele>
        <time>2019-01-26T11:31:15Z</time>
      </trkpt>
      <trkpt lat="51.231299075903" lon="4.465338621115">
        <ele>0</ele>
        <time>2019-01-26T11:31:24Z</time>
      </trkpt>
      <trkpt lat="51.231263788104" lon="4.46562905395">
        <ele>0</ele>
        <time>2019-01-26T11:31:31Z</time>
      </trkpt>
      <trkpt lat="51.231214502532" lon="4.465905321374">
        <ele>0</ele>
        <time>2019-01-26T11:31:38Z</time>
      </trkpt>
      <trkpt lat="51.231145854771" lon="4.466188797232">
        <ele>0</ele>
        <time>2019-01-26T11:31:45Z</time>
      </trkpt>
      <trkpt lat="51.231109393506" lon="4.466489707442">
        <ele>0</ele>
        <time>2019-01-26T11:31:53Z</time>
      </trkpt>
      <trkpt lat="51.231051055482" lon="4.466796233525">
        <ele>0</ele>
        <time>2019-01-26T11:32:00Z</time>
      </trkpt>
      <trkpt lat="51.231050301111" lon="4.467093539518">
        <ele>0</ele>
        <time>2019-01-26T11:32:07Z</time>
      </trkpt>
      <trkpt lat="51.231087349109" lon="4.467167719333">
        <ele>0</ele>
        <time>2019-01-26T11:32:10Z</time>
      </trkpt>
      <trkpt lat="51.231119032691" lon="4.467142573633">
        <ele>0</ele>
        <time>2019-01-26T11:32:12Z</time>
      </trkpt>
      <trkpt lat="51.231303266853" lon="4.467125809833">
        <ele>0</ele>
        <time>2019-01-26T11:32:21Z</time>
      </trkpt>
      <trkpt lat="51.231482639513" lon="4.46711432663">
        <ele>0</ele>
        <time>2019-01-26T11:32:29Z</time>
      </trkpt>
      <trkpt lat="51.231666203123" lon="4.467174592491">
        <ele>0</ele>
        <time>2019-01-26T11:32:37Z</time>
      </trkpt>
      <trkpt lat="51.231719679645" lon="4.467390007321">
        <ele>0</ele>
        <time>2019-01-26T11:32:45Z</time>
      </trkpt>
      <trkpt lat="51.231810120346" lon="4.467546245937">
        <ele>0</ele>
        <time>2019-01-26T11:32:51Z</time>
      </trkpt>
      <trkpt lat="51.23180140317" lon="4.467598884269">
        <ele>0</ele>
        <time>2019-01-26T11:32:54Z</time>
      </trkpt>
      <trkpt lat="51.231677434869" lon="4.467864758137">
        <ele>0</ele>
        <time>2019-01-26T11:33:01Z</time>
      </trkpt>
      <trkpt lat="51.231566039418" lon="4.468109761074">
        <ele>0</ele>
        <time>2019-01-26T11:33:08Z</time>
      </trkpt>
      <trkpt lat="51.231446094429" lon="4.468374712933">
        <ele>0</ele>
        <time>2019-01-26T11:33:15Z</time>
      </trkpt>
      <trkpt lat="51.231330591847" lon="4.468632791634">
        <ele>0</ele>
        <time>2019-01-26T11:33:22Z</time>
      </trkpt>
      <trkpt lat="51.231194469791" lon="4.468915429302">
        <ele>0</ele>
        <time>2019-01-26T11:33:30Z</time>
      </trkpt>
      <trkpt lat="51.231046948351" lon="4.469113242142">
        <ele>0</ele>
        <time>2019-01-26T11:33:37Z</time>
      </trkpt>
      <trkpt lat="51.230869754985" lon="4.469274006984">
        <ele>0</ele>
        <time>2019-01-26T11:33:44Z</time>
      </trkpt>
      <trkpt lat="51.230682754796" lon="4.469405686633">
        <ele>0</ele>
        <time>2019-01-26T11:33:51Z</time>
      </trkpt>
      <trkpt lat="51.230505309973" lon="4.46951574098">
        <ele>0</ele>
        <time>2019-01-26T11:33:58Z</time>
      </trkpt>
      <trkpt lat="51.230332810471" lon="4.469627890802">
        <ele>0</ele>
        <time>2019-01-26T11:34:04Z</time>
      </trkpt>
      <trkpt lat="51.230221750296" lon="4.469847077487">
        <ele>1.6</ele>
        <time>2019-01-26T11:34:11Z</time>
      </trkpt>
      <trkpt lat="51.230234993698" lon="4.469887478245">
        <ele>2.4</ele>
        <time>2019-01-26T11:34:12Z</time>
      </trkpt>
      <trkpt lat="51.230359045818" lon="4.470130804802">
        <ele>7.4</ele>
        <time>2019-01-26T11:34:19Z</time>
      </trkpt>
      <trkpt lat="51.230461807912" lon="4.470401791629">
        <ele>9.4</ele>
        <time>2019-01-26T11:34:26Z</time>
      </trkpt>
      <trkpt lat="51.230461304998" lon="4.470714687956">
        <ele>9.6</ele>
        <time>2019-01-26T11:34:33Z</time>
      </trkpt>
      <trkpt lat="51.230473291115" lon="4.471019118564">
        <ele>11.2</ele>
        <time>2019-01-26T11:34:40Z</time>
      </trkpt>
      <trkpt lat="51.230590302439" lon="4.471260433465">
        <ele>13.8</ele>
        <time>2019-01-26T11:34:47Z</time>
      </trkpt>
      <trkpt lat="51.230713516369" lon="4.471478279046">
        <ele>15.4</ele>
        <time>2019-01-26T11:34:54Z</time>
      </trkpt>
      <trkpt lat="51.230808567115" lon="4.471733340263">
        <ele>16.2</ele>
        <time>2019-01-26T11:35:02Z</time>
      </trkpt>
      <trkpt lat="51.230914765788" lon="4.471973230241">
        <ele>12.4</ele>
        <time>2019-01-26T11:35:10Z</time>
      </trkpt>
      <trkpt lat="51.231028508171" lon="4.472226279802">
        <ele>10</ele>
        <time>2019-01-26T11:35:17Z</time>
      </trkpt>
      <trkpt lat="51.230965057188" lon="4.472518556655">
        <ele>5.4</ele>
        <time>2019-01-26T11:35:26Z</time>
      </trkpt>
      <trkpt lat="51.230961369152" lon="4.472620564378">
        <ele>3.8</ele>
        <time>2019-01-26T11:35:29Z</time>
      </trkpt>
      <trkpt lat="51.231066897273" lon="4.472870680274">
        <ele>1.4</ele>
        <time>2019-01-26T11:35:36Z</time>
      </trkpt>
      <trkpt lat="51.231121211985" lon="4.473189863026">
        <ele>0.4</ele>
        <time>2019-01-26T11:35:43Z</time>
      </trkpt>
      <trkpt lat="51.231241073155" lon="4.473413911213">
        <ele>0</ele>
        <time>2019-01-26T11:35:50Z</time>
      </trkpt>
      <trkpt lat="51.231407537689" lon="4.473606694913">
        <ele>0.6</ele>
        <time>2019-01-26T11:35:58Z</time>
      </trkpt>
      <trkpt lat="51.231516167113" lon="4.47385169785">
        <ele>0</ele>
        <time>2019-01-26T11:36:05Z</time>
      </trkpt>
      <trkpt lat="51.231662012173" lon="4.474057641133">
        <ele>0</ele>
        <time>2019-01-26T11:36:12Z</time>
      </trkpt>
      <trkpt lat="51.231774748728" lon="4.474311947979">
        <ele>0</ele>
        <time>2019-01-26T11:36:19Z</time>
      </trkpt>
      <trkpt lat="51.231889916034" lon="4.47455829202">
        <ele>0</ele>
        <time>2019-01-26T11:36:26Z</time>
      </trkpt>
      <trkpt lat="51.232002987865" lon="4.474819388205">
        <ele>0</ele>
        <time>2019-01-26T11:36:33Z</time>
      </trkpt>
      <trkpt lat="51.232101139914" lon="4.475098840751">
        <ele>0.8</ele>
        <time>2019-01-26T11:36:40Z</time>
      </trkpt>
      <trkpt lat="51.232199627239" lon="4.475373264157">
        <ele>1</ele>
        <time>2019-01-26T11:36:47Z</time>
      </trkpt>
      <trkpt lat="51.23232443373" lon="4.475632767781">
        <ele>0.6</ele>
        <time>2019-01-26T11:36:54Z</time>
      </trkpt>
      <trkpt lat="51.23245351499" lon="4.475883386591">
        <ele>0</ele>
        <time>2019-01-26T11:37:01Z</time>
      </trkpt>
      <trkpt lat="51.232557869645" lon="4.476166694811">
        <ele>0</ele>
        <time>2019-01-26T11:37:08Z</time>
      </trkpt>
      <trkpt lat="51.2326454605" lon="4.476459558397">
        <ele>0</ele>
        <time>2019-01-26T11:37:15Z</time>
      </trkpt>
      <trkpt lat="51.232723915084" lon="4.476729790853">
        <ele>0</ele>
        <time>2019-01-26T11:37:22Z</time>
      </trkpt>
      <trkpt lat="51.232803375496" lon="4.476992228142">
        <ele>0</ele>
        <time>2019-01-26T11:37:29Z</time>
      </trkpt>
      <trkpt lat="51.232887278315" lon="4.47726145477">
        <ele>3</ele>
        <time>2019-01-26T11:37:36Z</time>
      </trkpt>
      <trkpt lat="51.232986352373" lon="4.477416855196">
        <ele>3.2</ele>
        <time>2019-01-26T11:37:42Z</time>
      </trkpt>
      <trkpt lat="51.233091545218" lon="4.477293976542">
        <ele>2.8</ele>
        <time>2019-01-26T11:37:48Z</time>
      </trkpt>
      <trkpt lat="51.233170586535" lon="4.477527077181">
        <ele>5.8</ele>
        <time>2019-01-26T11:37:56Z</time>
      </trkpt>
      <trkpt lat="51.23325901558" lon="4.47778532352">
        <ele>6.8</ele>
        <time>2019-01-26T11:38:04Z</time>
      </trkpt>
      <trkpt lat="51.233293046094" lon="4.478077348916">
        <ele>4.8</ele>
        <time>2019-01-26T11:38:11Z</time>
      </trkpt>
      <trkpt lat="51.233237138821" lon="4.478323190043">
        <ele>1.4</ele>
        <time>2019-01-26T11:38:18Z</time>
      </trkpt>
      <trkpt lat="51.233069249364" lon="4.47853047443">
        <ele>0</ele>
        <time>2019-01-26T11:38:28Z</time>
      </trkpt>
      <trkpt lat="51.232966235813" lon="4.478663243726">
        <ele>0</ele>
        <time>2019-01-26T11:38:34Z</time>
      </trkpt>
      <trkpt lat="51.233032369004" lon="4.478971697646">
        <ele>0</ele>
        <time>2019-01-26T11:38:41Z</time>
      </trkpt>
      <trkpt lat="51.233047372605" lon="4.479264645051">
        <ele>0</ele>
        <time>2019-01-26T11:38:48Z</time>
      </trkpt>
      <trkpt lat="51.23291116673" lon="4.479456255285">
        <ele>0</ele>
        <time>2019-01-26T11:38:54Z</time>
      </trkpt>
      <trkpt lat="51.232601287887" lon="4.479676363979">
        <ele>0</ele>
        <time>2019-01-26T11:39:07Z</time>
      </trkpt>
      <trkpt lat="51.232398697364" lon="4.479643004017">
        <ele>0</ele>
        <time>2019-01-26T11:39:15Z</time>
      </trkpt>
      <trkpt lat="51.232227036052" lon="4.479533452584">
        <ele>0</ele>
        <time>2019-01-26T11:39:24Z</time>
      </trkpt>
      <trkpt lat="51.232226281681" lon="4.479489028514">
        <ele>0</ele>
        <time>2019-01-26T11:39:26Z</time>
      </trkpt>
      <trkpt lat="51.232248074621" lon="4.47945918895">
        <ele>0</ele>
        <time>2019-01-26T11:39:28Z</time>
      </trkpt>
      <trkpt lat="51.232414203879" lon="4.47924712688">
        <ele>0</ele>
        <time>2019-01-26T11:39:40Z</time>
      </trkpt>
      <trkpt lat="51.232455275189" lon="4.479069095324">
        <ele>0</ele>
        <time>2019-01-26T11:39:46Z</time>
      </trkpt>
      <trkpt lat="51.232463740908" lon="4.478888884474">
        <ele>0</ele>
        <time>2019-01-26T11:39:52Z</time>
      </trkpt>
      <trkpt lat="51.232641688645" lon="4.478806658035">
        <ele>0</ele>
        <time>2019-01-26T11:39:58Z</time>
      </trkpt>
      <trkpt lat="51.232819468744" lon="4.478644300632">
        <ele>0</ele>
        <time>2019-01-26T11:40:06Z</time>
      </trkpt>
      <trkpt lat="51.232986184735" lon="4.478491163319">
        <ele>0</ele>
        <time>2019-01-26T11:40:15Z</time>
      </trkpt>
      <trkpt lat="51.23314083079" lon="4.478307432071">
        <ele>0</ele>
        <time>2019-01-26T11:40:22Z</time>
      </trkpt>
      <trkpt lat="51.233156002029" lon="4.478232414066">
        <ele>0</ele>
        <time>2019-01-26T11:40:24Z</time>
      </trkpt>
      <trkpt lat="51.233207299257" lon="4.478028314801">
        <ele>0</ele>
        <time>2019-01-26T11:40:29Z</time>
      </trkpt>
      <trkpt lat="51.233156504943" lon="4.477743078744">
        <ele>2.8</ele>
        <time>2019-01-26T11:40:36Z</time>
      </trkpt>
      <trkpt lat="51.233100010937" lon="4.477576865667">
        <ele>4.4</ele>
        <time>2019-01-26T11:40:41Z</time>
      </trkpt>
      <trkpt lat="51.233264463815" lon="4.477400342853">
        <ele>4.8</ele>
        <time>2019-01-26T11:40:50Z</time>
      </trkpt>
      <trkpt lat="51.233433862014" lon="4.477272015964">
        <ele>3.8</ele>
        <time>2019-01-26T11:40:58Z</time>
      </trkpt>
      <trkpt lat="51.233614659597" lon="4.477049560338">
        <ele>2.8</ele>
        <time>2019-01-26T11:41:08Z</time>
      </trkpt>
      <trkpt lat="51.233768216005" lon="4.476886532383">
        <ele>2</ele>
        <time>2019-01-26T11:41:15Z</time>
      </trkpt>
      <trkpt lat="51.233934009987" lon="4.476715960718">
        <ele>0</ele>
        <time>2019-01-26T11:41:22Z</time>
      </trkpt>
      <trkpt lat="51.234090416241" lon="4.476553770953">
        <ele>0</ele>
        <time>2019-01-26T11:41:28Z</time>
      </trkpt>
      <trkpt lat="51.234254366205" lon="4.476401890925">
        <ele>0</ele>
        <time>2019-01-26T11:41:36Z</time>
      </trkpt>
      <trkpt lat="51.234426278974" lon="4.476251184363">
        <ele>0</ele>
        <time>2019-01-26T11:41:44Z</time>
      </trkpt>
      <trkpt lat="51.23459257587" lon="4.476087653494">
        <ele>0</ele>
        <time>2019-01-26T11:41:52Z</time>
      </trkpt>
      <trkpt lat="51.234747892477" lon="4.475932001611">
        <ele>0</ele>
        <time>2019-01-26T11:42:00Z</time>
      </trkpt>
      <trkpt lat="51.234836153884" lon="4.475714239849">
        <ele>0</ele>
        <time>2019-01-26T11:42:08Z</time>
      </trkpt>
      <trkpt lat="51.234798602972" lon="4.475406372662">
        <ele>0</ele>
        <time>2019-01-26T11:42:14Z</time>
      </trkpt>
      <trkpt lat="51.23483146002" lon="4.475371755415">
        <ele>0</ele>
        <time>2019-01-26T11:42:16Z</time>
      </trkpt>
      <trkpt lat="51.235021058598" lon="4.475386172283">
        <ele>0</ele>
        <time>2019-01-26T11:42:24Z</time>
      </trkpt>
      <trkpt lat="51.235051317257" lon="4.475432691828">
        <ele>0</ele>
        <time>2019-01-26T11:42:25Z</time>
      </trkpt>
      <trkpt lat="51.235063890107" lon="4.47576193286">
        <ele>1.8</ele>
        <time>2019-01-26T11:42:34Z</time>
      </trkpt>
      <trkpt lat="51.235110158195" lon="4.476075835015">
        <ele>0</ele>
        <time>2019-01-26T11:42:41Z</time>
      </trkpt>
      <trkpt lat="51.235138740474" lon="4.476397532337">
        <ele>0</ele>
        <time>2019-01-26T11:42:48Z</time>
      </trkpt>
      <trkpt lat="51.235130861488" lon="4.476757367304">
        <ele>0</ele>
        <time>2019-01-26T11:42:56Z</time>
      </trkpt>
      <trkpt lat="51.23511979738" lon="4.477060624446">
        <ele>0</ele>
        <time>2019-01-26T11:43:04Z</time>
      </trkpt>
      <trkpt lat="51.235078893708" lon="4.477375113334">
        <ele>1.4</ele>
        <time>2019-01-26T11:43:10Z</time>
      </trkpt>
      <trkpt lat="51.235042516262" lon="4.477693206439">
        <ele>3.2</ele>
        <time>2019-01-26T11:43:18Z</time>
      </trkpt>
      <trkpt lat="51.234959367814" lon="4.478009204069">
        <ele>5.4</ele>
        <time>2019-01-26T11:43:26Z</time>
      </trkpt>
      <trkpt lat="51.234835231875" lon="4.478240879785">
        <ele>5.2</ele>
        <time>2019-01-26T11:43:33Z</time>
      </trkpt>
      <trkpt lat="51.234671449549" lon="4.478421677368">
        <ele>6.2</ele>
        <time>2019-01-26T11:43:40Z</time>
      </trkpt>
      <trkpt lat="51.23450037497" lon="4.478546986773">
        <ele>6.8</ele>
        <time>2019-01-26T11:43:47Z</time>
      </trkpt>
      <trkpt lat="51.234322343414" lon="4.478595517974">
        <ele>7.2</ele>
        <time>2019-01-26T11:43:54Z</time>
      </trkpt>
      <trkpt lat="51.23412570404" lon="4.478605408616">
        <ele>6.4</ele>
        <time>2019-01-26T11:44:02Z</time>
      </trkpt>
      <trkpt lat="51.233926047182" lon="4.478613790516">
        <ele>5.6</ele>
        <time>2019-01-26T11:44:10Z</time>
      </trkpt>
      <trkpt lat="51.233725133039" lon="4.478656035292">
        <ele>4.2</ele>
        <time>2019-01-26T11:44:19Z</time>
      </trkpt>
      <trkpt lat="51.233541569429" lon="4.478673469644">
        <ele>3.4</ele>
        <time>2019-01-26T11:44:26Z</time>
      </trkpt>
      <trkpt lat="51.233361945312" lon="4.478748822925">
        <ele>3.6</ele>
        <time>2019-01-26T11:44:33Z</time>
      </trkpt>
      <trkpt lat="51.233168323422" lon="4.478929536689">
        <ele>1.4</ele>
        <time>2019-01-26T11:44:40Z</time>
      </trkpt>
      <trkpt lat="51.233079223825" lon="4.479199098593">
        <ele>0.6</ele>
        <time>2019-01-26T11:44:48Z</time>
      </trkpt>
      <trkpt lat="51.23284997886" lon="4.479426834816">
        <ele>0</ele>
        <time>2019-01-26T11:44:58Z</time>
      </trkpt>
      <trkpt lat="51.232705893999" lon="4.479632107547">
        <ele>0.2</ele>
        <time>2019-01-26T11:45:05Z</time>
      </trkpt>
      <trkpt lat="51.232522414208" lon="4.47975004088">
        <ele>0.6</ele>
        <time>2019-01-26T11:45:12Z</time>
      </trkpt>
      <trkpt lat="51.232334072915" lon="4.47972573337">
        <ele>0</ele>
        <time>2019-01-26T11:45:19Z</time>
      </trkpt>
      <trkpt lat="51.232165261449" lon="4.479609392598">
        <ele>0</ele>
        <time>2019-01-26T11:45:26Z</time>
      </trkpt>
      <trkpt lat="51.232002065856" lon="4.47948098189">
        <ele>0</ele>
        <time>2019-01-26T11:45:33Z</time>
      </trkpt>
      <trkpt lat="51.23183828353" lon="4.479341423255">
        <ele>0.6</ele>
        <time>2019-01-26T11:45:40Z</time>
      </trkpt>
      <trkpt lat="51.231649606961" lon="4.479303537067">
        <ele>5</ele>
        <time>2019-01-26T11:45:48Z</time>
      </trkpt>
      <trkpt lat="51.231449866284" lon="4.479292053864">
        <ele>10.6</ele>
        <time>2019-01-26T11:45:56Z</time>
      </trkpt>
      <trkpt lat="51.231252723996" lon="4.479250563459">
        <ele>21.2</ele>
        <time>2019-01-26T11:46:05Z</time>
      </trkpt>
      <trkpt lat="51.231045942523" lon="4.479165235717">
        <ele>27</ele>
        <time>2019-01-26T11:46:12Z</time>
      </trkpt>
      <trkpt lat="51.230862211275" lon="4.478963148108">
        <ele>47</ele>
        <time>2019-01-26T11:46:17Z</time>
      </trkpt>
      <trkpt lat="51.230665236625" lon="4.478929117594">
        <ele>53.4</ele>
        <time>2019-01-26T11:46:24Z</time>
      </trkpt>
      <trkpt lat="51.23046449012" lon="4.479013942422">
        <ele>49.6</ele>
        <time>2019-01-26T11:46:34Z</time>
      </trkpt>
      <trkpt lat="51.23027589737" lon="4.479076387577">
        <ele>48.6</ele>
        <time>2019-01-26T11:46:42Z</time>
      </trkpt>
      <trkpt lat="51.23009987747" lon="4.479230698356">
        <ele>30.2</ele>
        <time>2019-01-26T11:46:50Z</time>
      </trkpt>
      <trkpt lat="51.229904746838" lon="4.479249892907">
        <ele>25.8</ele>
        <time>2019-01-26T11:46:57Z</time>
      </trkpt>
      <trkpt lat="51.229708275102" lon="4.479239247894">
        <ele>28</ele>
        <time>2019-01-26T11:47:04Z</time>
      </trkpt>
      <trkpt lat="51.229507612416" lon="4.479263974499">
        <ele>26.8</ele>
        <time>2019-01-26T11:47:11Z</time>
      </trkpt>
      <trkpt lat="51.229313152336" lon="4.479312589519">
        <ele>21.2</ele>
        <time>2019-01-26T11:47:18Z</time>
      </trkpt>
      <trkpt lat="51.229126990337" lon="4.479368161516">
        <ele>17</ele>
        <time>2019-01-26T11:47:25Z</time>
      </trkpt>
      <trkpt lat="51.228930434782" lon="4.47930999113">
        <ele>13.6</ele>
        <time>2019-01-26T11:47:33Z</time>
      </trkpt>
      <trkpt lat="51.228736561435" lon="4.479306806008">
        <ele>13.6</ele>
        <time>2019-01-26T11:47:40Z</time>
      </trkpt>
      <trkpt lat="51.228551489083" lon="4.479347122947">
        <ele>12.8</ele>
        <time>2019-01-26T11:47:47Z</time>
      </trkpt>
      <trkpt lat="51.22835476589" lon="4.479351649173">
        <ele>12.8</ele>
        <time>2019-01-26T11:47:54Z</time>
      </trkpt>
      <trkpt lat="51.228174135945" lon="4.479351230078">
        <ele>11.2</ele>
        <time>2019-01-26T11:48:01Z</time>
      </trkpt>
      <trkpt lat="51.22797003668" lon="4.479341674712">
        <ele>11.8</ele>
        <time>2019-01-26T11:48:09Z</time>
      </trkpt>
      <trkpt lat="51.227777923532" lon="4.479344943653">
        <ele>12.2</ele>
        <time>2019-01-26T11:48:16Z</time>
      </trkpt>
      <trkpt lat="51.227584888375" lon="4.479351565354">
        <ele>12.2</ele>
        <time>2019-01-26T11:48:23Z</time>
      </trkpt>
      <trkpt lat="51.227394870702" lon="4.479368245335">
        <ele>11.6</ele>
        <time>2019-01-26T11:48:29Z</time>
      </trkpt>
      <trkpt lat="51.227210971816" lon="4.479377549244">
        <ele>12.2</ele>
        <time>2019-01-26T11:48:36Z</time>
      </trkpt>
      <trkpt lat="51.227017685202" lon="4.479389786818">
        <ele>11.6</ele>
        <time>2019-01-26T11:48:43Z</time>
      </trkpt>
      <trkpt lat="51.226821464923" lon="4.479405460971">
        <ele>10.2</ele>
        <time>2019-01-26T11:48:50Z</time>
      </trkpt>
      <trkpt lat="51.226635135286" lon="4.479398252537">
        <ele>7</ele>
        <time>2019-01-26T11:48:57Z</time>
      </trkpt>
      <trkpt lat="51.226436065161" lon="4.479374615579">
        <ele>7.4</ele>
        <time>2019-01-26T11:49:04Z</time>
      </trkpt>
      <trkpt lat="51.226251328085" lon="4.479395235053">
        <ele>8.4</ele>
        <time>2019-01-26T11:49:11Z</time>
      </trkpt>
      <trkpt lat="51.226070614321" lon="4.479415519251">
        <ele>5.2</ele>
        <time>2019-01-26T11:49:17Z</time>
      </trkpt>
      <trkpt lat="51.225875483689" lon="4.479387607524">
        <ele>6.6</ele>
        <time>2019-01-26T11:49:24Z</time>
      </trkpt>
      <trkpt lat="51.225692758269" lon="4.479380985823">
        <ele>7.8</ele>
        <time>2019-01-26T11:49:31Z</time>
      </trkpt>
      <trkpt lat="51.225494610153" lon="4.479403700772">
        <ele>8.6</ele>
        <time>2019-01-26T11:49:38Z</time>
      </trkpt>
      <trkpt lat="51.225311884733" lon="4.479394480682">
        <ele>10.2</ele>
        <time>2019-01-26T11:49:45Z</time>
      </trkpt>
      <trkpt lat="51.225119855404" lon="4.479393642492">
        <ele>12.8</ele>
        <time>2019-01-26T11:49:52Z</time>
      </trkpt>
      <trkpt lat="51.224931933206" lon="4.479358019417">
        <ele>15.8</ele>
        <time>2019-01-26T11:49:59Z</time>
      </trkpt>
      <trkpt lat="51.224733701271" lon="4.479339663056">
        <ele>19.2</ele>
        <time>2019-01-26T11:50:06Z</time>
      </trkpt>
      <trkpt lat="51.224554999163" lon="4.479377213968">
        <ele>17</ele>
        <time>2019-01-26T11:50:12Z</time>
      </trkpt>
      <trkpt lat="51.224352073364" lon="4.479388613352">
        <ele>10.2</ele>
        <time>2019-01-26T11:50:19Z</time>
      </trkpt>
      <trkpt lat="51.22416130132" lon="4.479353828467">
        <ele>9.4</ele>
        <time>2019-01-26T11:50:27Z</time>
      </trkpt>
      <trkpt lat="51.223931469622" lon="4.479349637517">
        <ele>13.4</ele>
        <time>2019-01-26T11:50:37Z</time>
      </trkpt>
      <trkpt lat="51.223749163297" lon="4.479371765733">
        <ele>15</ele>
        <time>2019-01-26T11:50:43Z</time>
      </trkpt>
      <trkpt lat="51.223540621625" lon="4.47937872271">
        <ele>19</ele>
        <time>2019-01-26T11:50:50Z</time>
      </trkpt>
      <trkpt lat="51.223328894831" lon="4.479363886747">
        <ele>20.8</ele>
        <time>2019-01-26T11:50:57Z</time>
      </trkpt>
      <trkpt lat="51.223136697864" lon="4.479340585065">
        <ele>25.4</ele>
        <time>2019-01-26T11:51:05Z</time>
      </trkpt>
      <trkpt lat="51.22294089668" lon="4.479385931144">
        <ele>25.2</ele>
        <time>2019-01-26T11:51:13Z</time>
      </trkpt>
      <trkpt lat="51.222748615894" lon="4.479470001601">
        <ele>25</ele>
        <time>2019-01-26T11:51:20Z</time>
      </trkpt>
      <trkpt lat="51.2225620348" lon="4.479548959099">
        <ele>24.4</ele>
        <time>2019-01-26T11:51:27Z</time>
      </trkpt>
      <trkpt lat="51.222364808693" lon="4.479619367059">
        <ele>23.6</ele>
        <time>2019-01-26T11:51:35Z</time>
      </trkpt>
      <trkpt lat="51.222162385808" lon="4.47963353247">
        <ele>25</ele>
        <time>2019-01-26T11:51:43Z</time>
      </trkpt>
      <trkpt lat="51.22197027266" lon="4.479752974545">
        <ele>18.4</ele>
        <time>2019-01-26T11:51:51Z</time>
      </trkpt>
      <trkpt lat="51.22179425276" lon="4.479837715554">
        <ele>11.4</ele>
        <time>2019-01-26T11:51:57Z</time>
      </trkpt>
      <trkpt lat="51.22161907105" lon="4.479970987764">
        <ele>7.4</ele>
        <time>2019-01-26T11:52:04Z</time>
      </trkpt>
      <trkpt lat="51.221420755296" lon="4.480037875326">
        <ele>7.2</ele>
        <time>2019-01-26T11:52:12Z</time>
      </trkpt>
      <trkpt lat="51.221234090383" lon="4.480134686271">
        <ele>7</ele>
        <time>2019-01-26T11:52:19Z</time>
      </trkpt>
      <trkpt lat="51.221044575624" lon="4.480233425053">
        <ele>7.8</ele>
        <time>2019-01-26T11:52:26Z</time>
      </trkpt>
      <trkpt lat="51.220862269299" lon="4.480331158007">
        <ele>6.2</ele>
        <time>2019-01-26T11:52:33Z</time>
      </trkpt>
      <trkpt lat="51.220685746485" lon="4.480426627848">
        <ele>5.6</ele>
        <time>2019-01-26T11:52:40Z</time>
      </trkpt>
      <trkpt lat="51.220508972214" lon="4.480543387715">
        <ele>8.2</ele>
        <time>2019-01-26T11:52:48Z</time>
      </trkpt>
      <trkpt lat="51.220318619265" lon="4.480595690771">
        <ele>12.2</ele>
        <time>2019-01-26T11:52:55Z</time>
      </trkpt>
      <trkpt lat="51.220128685411" lon="4.480654699347">
        <ele>16.4</ele>
        <time>2019-01-26T11:53:02Z</time>
      </trkpt>
      <trkpt lat="51.219922825947" lon="4.480740865279">
        <ele>16.4</ele>
        <time>2019-01-26T11:53:09Z</time>
      </trkpt>
      <trkpt lat="51.219746135495" lon="4.480839939337">
        <ele>14.4</ele>
        <time>2019-01-26T11:53:16Z</time>
      </trkpt>
      <trkpt lat="51.21968788129" lon="4.480836083663">
        <ele>12.2</ele>
        <time>2019-01-26T11:53:19Z</time>
      </trkpt>
      <trkpt lat="51.219677320096" lon="4.480765508065">
        <ele>11.4</ele>
        <time>2019-01-26T11:53:21Z</time>
      </trkpt>
      <trkpt lat="51.219830876504" lon="4.480559983877">
        <ele>9.6</ele>
        <time>2019-01-26T11:53:29Z</time>
      </trkpt>
      <trkpt lat="51.219883598655" lon="4.480441296173">
        <ele>8.2</ele>
        <time>2019-01-26T11:53:33Z</time>
      </trkpt>
      <trkpt lat="51.21985132834" lon="4.480412043342">
        <ele>7</ele>
        <time>2019-01-26T11:53:36Z</time>
      </trkpt>
      <trkpt lat="51.219660472477" lon="4.480472812117">
        <ele>6.8</ele>
        <time>2019-01-26T11:53:44Z</time>
      </trkpt>
      <trkpt lat="51.219548322655" lon="4.480248931568">
        <ele>7.2</ele>
        <time>2019-01-26T11:53:51Z</time>
      </trkpt>
      <trkpt lat="51.219452936633" lon="4.479986242822">
        <ele>7.4</ele>
        <time>2019-01-26T11:53:58Z</time>
      </trkpt>
      <trkpt lat="51.219411613866" lon="4.479871075516">
        <ele>8</ele>
        <time>2019-01-26T11:54:01Z</time>
      </trkpt>
      <trkpt lat="51.219362579751" lon="4.479588773124">
        <ele>7.4</ele>
        <time>2019-01-26T11:54:08Z</time>
      </trkpt>
      <trkpt lat="51.219311785437" lon="4.479295993357">
        <ele>6.2</ele>
        <time>2019-01-26T11:54:15Z</time>
      </trkpt>
      <trkpt lat="51.219252776861" lon="4.479011511671">
        <ele>7.4</ele>
        <time>2019-01-26T11:54:22Z</time>
      </trkpt>
      <trkpt lat="51.219197959235" lon="4.478721833207">
        <ele>5.8</ele>
        <time>2019-01-26T11:54:29Z</time>
      </trkpt>
      <trkpt lat="51.219117995909" lon="4.478438357349">
        <ele>7.6</ele>
        <time>2019-01-26T11:54:36Z</time>
      </trkpt>
      <trkpt lat="51.219030153597" lon="4.478156976966">
        <ele>9</ele>
        <time>2019-01-26T11:54:43Z</time>
      </trkpt>
      <trkpt lat="51.218949687357" lon="4.477883894664">
        <ele>11</ele>
        <time>2019-01-26T11:54:50Z</time>
      </trkpt>
      <trkpt lat="51.218892690437" lon="4.47758415792">
        <ele>10</ele>
        <time>2019-01-26T11:54:57Z</time>
      </trkpt>
      <trkpt lat="51.218861593588" lon="4.477298083673">
        <ele>9.6</ele>
        <time>2019-01-26T11:55:03Z</time>
      </trkpt>
      <trkpt lat="51.218812140378" lon="4.477013853444">
        <ele>10.4</ele>
        <time>2019-01-26T11:55:10Z</time>
      </trkpt>
      <trkpt lat="51.218826473427" lon="4.476683355127">
        <ele>11.6</ele>
        <time>2019-01-26T11:55:17Z</time>
      </trkpt>
      <trkpt lat="51.218861509769" lon="4.476399460174">
        <ele>10.2</ele>
        <time>2019-01-26T11:55:23Z</time>
      </trkpt>
      <trkpt lat="51.218897971034" lon="4.476072817531">
        <ele>9.2</ele>
        <time>2019-01-26T11:55:30Z</time>
      </trkpt>
      <trkpt lat="51.218952872479" lon="4.475770482398">
        <ele>6.2</ele>
        <time>2019-01-26T11:55:37Z</time>
      </trkpt>
      <trkpt lat="51.219004924078" lon="4.475460435917">
        <ele>4.8</ele>
        <time>2019-01-26T11:55:44Z</time>
      </trkpt>
      <trkpt lat="51.219029147769" lon="4.475163632838">
        <ele>5</ele>
        <time>2019-01-26T11:55:51Z</time>
      </trkpt>
      <trkpt lat="51.21907851716" lon="4.474870182519">
        <ele>2.8</ele>
        <time>2019-01-26T11:55:58Z</time>
      </trkpt>
      <trkpt lat="51.2191422196" lon="4.47441579972">
        <ele>1.2</ele>
        <time>2019-01-26T11:56:09Z</time>
      </trkpt>
      <trkpt lat="51.219136184632" lon="4.474341955181">
        <ele>1</ele>
        <time>2019-01-26T11:56:11Z</time>
      </trkpt>
      <trkpt lat="51.219015485272" lon="4.474125450704">
        <ele>0.8</ele>
        <time>2019-01-26T11:56:19Z</time>
      </trkpt>
      <trkpt lat="51.218994111427" lon="4.473845998158">
        <ele>1</ele>
        <time>2019-01-26T11:56:27Z</time>
      </trkpt>
      <trkpt lat="51.219014479444" lon="4.473536203134">
        <ele>3.2</ele>
        <time>2019-01-26T11:56:34Z</time>
      </trkpt>
      <trkpt lat="51.219067453052" lon="4.473243842462">
        <ele>4.2</ele>
        <time>2019-01-26T11:56:41Z</time>
      </trkpt>
      <trkpt lat="51.219105590697" lon="4.472954247817">
        <ele>4.8</ele>
        <time>2019-01-26T11:56:48Z</time>
      </trkpt>
      <trkpt lat="51.219138531564" lon="4.472652918512">
        <ele>4.2</ele>
        <time>2019-01-26T11:56:56Z</time>
      </trkpt>
      <trkpt lat="51.219040211877" lon="4.472459212803">
        <ele>0</ele>
        <time>2019-01-26T11:57:04Z</time>
      </trkpt>
      <trkpt lat="51.219064100292" lon="4.472156374756">
        <ele>0</ele>
        <time>2019-01-26T11:57:12Z</time>
      </trkpt>
      <trkpt lat="51.219059825523" lon="4.471843310791">
        <ele>0</ele>
        <time>2019-01-26T11:57:20Z</time>
      </trkpt>
      <trkpt lat="51.21889495355" lon="4.471731244788">
        <ele>0</ele>
        <time>2019-01-26T11:57:27Z</time>
      </trkpt>
      <trkpt lat="51.21877090143" lon="4.47151985327">
        <ele>0</ele>
        <time>2019-01-26T11:57:34Z</time>
      </trkpt>
      <trkpt lat="51.218715916166" lon="4.471221122354">
        <ele>0.4</ele>
        <time>2019-01-26T11:57:41Z</time>
      </trkpt>
      <trkpt lat="51.218697727443" lon="4.471148116005">
        <ele>1</ele>
        <time>2019-01-26T11:57:43Z</time>
      </trkpt>
      <trkpt lat="51.218660511807" lon="4.471104278668">
        <ele>1.4</ele>
        <time>2019-01-26T11:57:46Z</time>
      </trkpt>
      <trkpt lat="51.21848256407" lon="4.471131687481">
        <ele>2</ele>
        <time>2019-01-26T11:57:55Z</time>
      </trkpt>
      <trkpt lat="51.218292965492" lon="4.471014843795">
        <ele>1.4</ele>
        <time>2019-01-26T11:58:02Z</time>
      </trkpt>
      <trkpt lat="51.218146198423" lon="4.470813762014">
        <ele>0.2</ele>
        <time>2019-01-26T11:58:09Z</time>
      </trkpt>
      <trkpt lat="51.218104205104" lon="4.470510253415">
        <ele>1.4</ele>
        <time>2019-01-26T11:58:17Z</time>
      </trkpt>
      <trkpt lat="51.218185174258" lon="4.470221329322">
        <ele>0.4</ele>
        <time>2019-01-26T11:58:26Z</time>
      </trkpt>
      <trkpt lat="51.218225994111" lon="4.469923268958">
        <ele>0</ele>
        <time>2019-01-26T11:58:33Z</time>
      </trkpt>
      <trkpt lat="51.218257510055" lon="4.46960961826">
        <ele>0</ele>
        <time>2019-01-26T11:58:40Z</time>
      </trkpt>
      <trkpt lat="51.218301095935" lon="4.469319772158">
        <ele>0</ele>
        <time>2019-01-26T11:58:47Z</time>
      </trkpt>
      <trkpt lat="51.218360942701" lon="4.46904048725">
        <ele>0</ele>
        <time>2019-01-26T11:58:54Z</time>
      </trkpt>
      <trkpt lat="51.21842472896" lon="4.468754413003">
        <ele>0</ele>
        <time>2019-01-26T11:59:01Z</time>
      </trkpt>
      <trkpt lat="51.218569987287" lon="4.468555929611">
        <ele>0</ele>
        <time>2019-01-26T11:59:08Z</time>
      </trkpt>
      <trkpt lat="51.218691608656" lon="4.468327690474">
        <ele>0</ele>
        <time>2019-01-26T11:59:15Z</time>
      </trkpt>
      <trkpt lat="51.218698062719" lon="4.468291396847">
        <ele>0</ele>
        <time>2019-01-26T11:59:16Z</time>
      </trkpt>
      <trkpt lat="51.218680041634" lon="4.467983110565">
        <ele>0</ele>
        <time>2019-01-26T11:59:23Z</time>
      </trkpt>
      <trkpt lat="51.218714323605" lon="4.467671471523">
        <ele>0</ele>
        <time>2019-01-26T11:59:30Z</time>
      </trkpt>
      <trkpt lat="51.218734356346" lon="4.467383301801">
        <ele>0.6</ele>
        <time>2019-01-26T11:59:36Z</time>
      </trkpt>
      <trkpt lat="51.218833262766" lon="4.467126228928">
        <ele>0.4</ele>
        <time>2019-01-26T11:59:43Z</time>
      </trkpt>
      <trkpt lat="51.218908280771" lon="4.466842669251">
        <ele>4.2</ele>
        <time>2019-01-26T11:59:50Z</time>
      </trkpt>
      <trkpt lat="51.219026297923" lon="4.466605796757">
        <ele>7</ele>
        <time>2019-01-26T11:59:57Z</time>
      </trkpt>
      <trkpt lat="51.219155127726" lon="4.466356351413">
        <ele>3.6</ele>
        <time>2019-01-26T12:00:05Z</time>
      </trkpt>
      <trkpt lat="51.219254369422" lon="4.466105732603">
        <ele>0</ele>
        <time>2019-01-26T12:00:13Z</time>
      </trkpt>
      <trkpt lat="51.219321927536" lon="4.46581680851">
        <ele>0</ele>
        <time>2019-01-26T12:00:21Z</time>
      </trkpt>
      <trkpt lat="51.219372135117" lon="4.465502319622">
        <ele>0</ele>
        <time>2019-01-26T12:00:29Z</time>
      </trkpt>
      <trkpt lat="51.219373811497" lon="4.465228566768">
        <ele>0</ele>
        <time>2019-01-26T12:00:36Z</time>
      </trkpt>
      <trkpt lat="51.219363669398" lon="4.465091438884">
        <ele>0</ele>
        <time>2019-01-26T12:00:40Z</time>
      </trkpt>
      <trkpt lat="51.219299044949" lon="4.464813159804">
        <ele>0</ele>
        <time>2019-01-26T12:00:47Z</time>
      </trkpt>
      <trkpt lat="51.219275743267" lon="4.464505208798">
        <ele>0</ele>
        <time>2019-01-26T12:00:54Z</time>
      </trkpt>
      <trkpt lat="51.219291082144" lon="4.46417898525">
        <ele>0</ele>
        <time>2019-01-26T12:01:01Z</time>
      </trkpt>
      <trkpt lat="51.219302146252" lon="4.463882349809">
        <ele>0.8</ele>
        <time>2019-01-26T12:01:08Z</time>
      </trkpt>
      <trkpt lat="51.219309689962" lon="4.463577919201">
        <ele>1</ele>
        <time>2019-01-26T12:01:15Z</time>
      </trkpt>
      <trkpt lat="51.219293596714" lon="4.463319253767">
        <ele>0.6</ele>
        <time>2019-01-26T12:01:21Z</time>
      </trkpt>
      <trkpt lat="51.219136603727" lon="4.463181958245">
        <ele>0</ele>
        <time>2019-01-26T12:01:30Z</time>
      </trkpt>
      <trkpt lat="51.218948178615" lon="4.463155136165">
        <ele>0</ele>
        <time>2019-01-26T12:01:38Z</time>
      </trkpt>
      <trkpt lat="51.2187566522" lon="4.463131163931">
        <ele>0</ele>
        <time>2019-01-26T12:01:45Z</time>
      </trkpt>
      <trkpt lat="51.218427327349" lon="4.463081543083">
        <ele>0</ele>
        <time>2019-01-26T12:01:58Z</time>
      </trkpt>
      <trkpt lat="51.218221635523" lon="4.463070814251">
        <ele>0</ele>
        <time>2019-01-26T12:02:06Z</time>
      </trkpt>
      <trkpt lat="51.218031450212" lon="4.463057319392">
        <ele>0</ele>
        <time>2019-01-26T12:02:13Z</time>
      </trkpt>
      <trkpt lat="51.217887113894" lon="4.463025719629">
        <ele>0</ele>
        <time>2019-01-26T12:02:18Z</time>
      </trkpt>
      <trkpt lat="51.217826848033" lon="4.462727659265">
        <ele>1.6</ele>
        <time>2019-01-26T12:02:25Z</time>
      </trkpt>
      <trkpt lat="51.217820058694" lon="4.462411996911">
        <ele>4.2</ele>
        <time>2019-01-26T12:02:32Z</time>
      </trkpt>
      <trkpt lat="51.217815783925" lon="4.462100441688">
        <ele>5.2</ele>
        <time>2019-01-26T12:02:39Z</time>
      </trkpt>
      <trkpt lat="51.217832631544" lon="4.461811769052">
        <ele>4.8</ele>
        <time>2019-01-26T12:02:46Z</time>
      </trkpt>
      <trkpt lat="51.21784134872" lon="4.461487808617">
        <ele>6</ele>
        <time>2019-01-26T12:02:54Z</time>
      </trkpt>
      <trkpt lat="51.217962634813" lon="4.461268119018">
        <ele>3.8</ele>
        <time>2019-01-26T12:03:02Z</time>
      </trkpt>
      <trkpt lat="51.218141253102" lon="4.461132332238">
        <ele>2.8</ele>
        <time>2019-01-26T12:03:10Z</time>
      </trkpt>
      <trkpt lat="51.218310064568" lon="4.460964358962">
        <ele>0.6</ele>
        <time>2019-01-26T12:03:18Z</time>
      </trkpt>
      <trkpt lat="51.218484827183" lon="4.46084382724">
        <ele>0</ele>
        <time>2019-01-26T12:03:25Z</time>
      </trkpt>
      <trkpt lat="51.218676772693" lon="4.460729330486">
        <ele>0</ele>
        <time>2019-01-26T12:03:32Z</time>
      </trkpt>
      <trkpt lat="51.218864946348" lon="4.460621539252">
        <ele>0.6</ele>
        <time>2019-01-26T12:03:39Z</time>
      </trkpt>
      <trkpt lat="51.219036691479" lon="4.460496732761">
        <ele>0</ele>
        <time>2019-01-26T12:03:46Z</time>
      </trkpt>
      <trkpt lat="51.219204161841" lon="4.46034845695">
        <ele>0</ele>
        <time>2019-01-26T12:03:53Z</time>
      </trkpt>
      <trkpt lat="51.219384121234" lon="4.460214430369">
        <ele>0.4</ele>
        <time>2019-01-26T12:04:00Z</time>
      </trkpt>
      <trkpt lat="51.219535665986" lon="4.460037739917">
        <ele>0.8</ele>
        <time>2019-01-26T12:04:07Z</time>
      </trkpt>
      <trkpt lat="51.219721325071" lon="4.459881082206">
        <ele>0</ele>
        <time>2019-01-26T12:04:15Z</time>
      </trkpt>
      <trkpt lat="51.219880162076" lon="4.459722915753">
        <ele>0</ele>
        <time>2019-01-26T12:04:22Z</time>
      </trkpt>
      <trkpt lat="51.220062300763" lon="4.459612861406">
        <ele>0</ele>
        <time>2019-01-26T12:04:29Z</time>
      </trkpt>
      <trkpt lat="51.220130361791" lon="4.459576316322">
        <ele>0</ele>
        <time>2019-01-26T12:04:32Z</time>
      </trkpt>
      <trkpt lat="51.220176713698" lon="4.459637001278">
        <ele>1.6</ele>
        <time>2019-01-26T12:04:34Z</time>
      </trkpt>
      <trkpt lat="51.220222981786" lon="4.459965655577">
        <ele>2.8</ele>
        <time>2019-01-26T12:04:40Z</time>
      </trkpt>
      <trkpt lat="51.22025533592" lon="4.460271092013">
        <ele>3.4</ele>
        <time>2019-01-26T12:04:46Z</time>
      </trkpt>
      <trkpt lat="51.220300011447" lon="4.460582982512">
        <ele>6.8</ele>
        <time>2019-01-26T12:04:53Z</time>
      </trkpt>
      <trkpt lat="51.220302526017" lon="4.460614666094">
        <ele>6.8</ele>
        <time>2019-01-26T12:04:54Z</time>
      </trkpt>
      <trkpt lat="51.220447113792" lon="4.460820777015">
        <ele>6</ele>
        <time>2019-01-26T12:05:03Z</time>
      </trkpt>
      <trkpt lat="51.220595138146" lon="4.460991181042">
        <ele>7</ele>
        <time>2019-01-26T12:05:11Z</time>
      </trkpt>
      <trkpt lat="51.220741318482" lon="4.461190251167">
        <ele>10</ele>
        <time>2019-01-26T12:05:19Z</time>
      </trkpt>
      <trkpt lat="51.220875261244" lon="4.46142888386">
        <ele>15.4</ele>
        <time>2019-01-26T12:05:27Z</time>
      </trkpt>
      <trkpt lat="51.221018172639" lon="4.461636671161">
        <ele>18</ele>
        <time>2019-01-26T12:05:35Z</time>
      </trkpt>
      <trkpt lat="51.221161838405" lon="4.461815624726">
        <ele>21.4</ele>
        <time>2019-01-26T12:05:42Z</time>
      </trkpt>
      <trkpt lat="51.221306593818" lon="4.462003295467">
        <ele>18.2</ele>
        <time>2019-01-26T12:05:49Z</time>
      </trkpt>
      <trkpt lat="51.221472220162" lon="4.462133885469">
        <ele>15</ele>
        <time>2019-01-26T12:05:56Z</time>
      </trkpt>
      <trkpt lat="51.221645725492" lon="4.462300685279">
        <ele>13.2</ele>
        <time>2019-01-26T12:06:03Z</time>
      </trkpt>
      <trkpt lat="51.221819817555" lon="4.462453822592">
        <ele>10</ele>
        <time>2019-01-26T12:06:09Z</time>
      </trkpt>
      <trkpt lat="51.221969769746" lon="4.46263503927">
        <ele>8.4</ele>
        <time>2019-01-26T12:06:15Z</time>
      </trkpt>
      <trkpt lat="51.222148555673" lon="4.462758839933">
        <ele>7.8</ele>
        <time>2019-01-26T12:06:22Z</time>
      </trkpt>
      <trkpt lat="51.222324743211" lon="4.462927986675">
        <ele>5.6</ele>
        <time>2019-01-26T12:06:29Z</time>
      </trkpt>
      <trkpt lat="51.222468325158" lon="4.463114735407">
        <ele>5.8</ele>
        <time>2019-01-26T12:06:36Z</time>
      </trkpt>
      <trkpt lat="51.222640237927" lon="4.463233590749">
        <ele>3.2</ele>
        <time>2019-01-26T12:06:43Z</time>
      </trkpt>
      <trkpt lat="51.222805277538" lon="4.463357642869">
        <ele>1.4</ele>
        <time>2019-01-26T12:06:50Z</time>
      </trkpt>
      <trkpt lat="51.222960342688" lon="4.463511199277">
        <ele>2.6</ele>
        <time>2019-01-26T12:06:57Z</time>
      </trkpt>
      <trkpt lat="51.22312697486" lon="4.463647991885">
        <ele>3.2</ele>
        <time>2019-01-26T12:07:04Z</time>
      </trkpt>
      <trkpt lat="51.223304084407" lon="4.463780928819">
        <ele>3.4</ele>
        <time>2019-01-26T12:07:11Z</time>
      </trkpt>
      <trkpt lat="51.223459401014" lon="4.46395770309">
        <ele>6.6</ele>
        <time>2019-01-26T12:07:18Z</time>
      </trkpt>
      <trkpt lat="51.223752767514" lon="4.464372104226">
        <ele>13.6</ele>
        <time>2019-01-26T12:07:32Z</time>
      </trkpt>
      <trkpt lat="51.223920237876" lon="4.464528091385">
        <ele>15.4</ele>
        <time>2019-01-26T12:07:39Z</time>
      </trkpt>
      <trkpt lat="51.224076225035" lon="4.464697908679">
        <ele>14.4</ele>
        <time>2019-01-26T12:07:46Z</time>
      </trkpt>
      <trkpt lat="51.224245790872" lon="4.464848028508">
        <ele>11.2</ele>
        <time>2019-01-26T12:07:53Z</time>
      </trkpt>
      <trkpt lat="51.224412087768" lon="4.464995466129">
        <ele>11.4</ele>
        <time>2019-01-26T12:08:00Z</time>
      </trkpt>
      <trkpt lat="51.224584251994" lon="4.465164445233">
        <ele>11.6</ele>
        <time>2019-01-26T12:08:08Z</time>
      </trkpt>
      <trkpt lat="51.224770330174" lon="4.465308949189">
        <ele>12</ele>
        <time>2019-01-26T12:08:15Z</time>
      </trkpt>
      <trkpt lat="51.22493075974" lon="4.465455045706">
        <ele>12</ele>
        <time>2019-01-26T12:08:22Z</time>
      </trkpt>
      <trkpt lat="51.22511767611" lon="4.46558043893">
        <ele>9</ele>
        <time>2019-01-26T12:08:29Z</time>
      </trkpt>
      <trkpt lat="51.22530375429" lon="4.465700803014">
        <ele>6.4</ele>
        <time>2019-01-26T12:08:36Z</time>
      </trkpt>
      <trkpt lat="51.225497292361" lon="4.465780933978">
        <ele>2</ele>
        <time>2019-01-26T12:08:43Z</time>
      </trkpt>
      <trkpt lat="51.22568680712" lon="4.465871877593">
        <ele>2.2</ele>
        <time>2019-01-26T12:08:51Z</time>
      </trkpt>
      <trkpt lat="51.225882524485" lon="4.465989643288">
        <ele>7.2</ele>
        <time>2019-01-26T12:09:00Z</time>
      </trkpt>
      <trkpt lat="51.226079247678" lon="4.466056447031">
        <ele>6.4</ele>
        <time>2019-01-26T12:09:08Z</time>
      </trkpt>
      <trkpt lat="51.226265074401" lon="4.466093746486">
        <ele>9.6</ele>
        <time>2019-01-26T12:09:15Z</time>
      </trkpt>
      <trkpt lat="51.226464312164" lon="4.466141858592">
        <ele>11.2</ele>
        <time>2019-01-26T12:09:22Z</time>
      </trkpt>
      <trkpt lat="51.226651731448" lon="4.466186869395">
        <ele>11</ele>
        <time>2019-01-26T12:09:29Z</time>
      </trkpt>
      <trkpt lat="51.226840575655" lon="4.466228192162">
        <ele>8.6</ele>
        <time>2019-01-26T12:09:36Z</time>
      </trkpt>
      <trkpt lat="51.227021959971" lon="4.466249901283">
        <ele>9.4</ele>
        <time>2019-01-26T12:09:44Z</time>
      </trkpt>
      <trkpt lat="51.227107455351" lon="4.466261468305">
        <ele>11.8</ele>
        <time>2019-01-26T12:09:49Z</time>
      </trkpt>
      <trkpt lat="51.227172834171" lon="4.46621830152">
        <ele>13.6</ele>
        <time>2019-01-26T12:09:53Z</time>
      </trkpt>
      <trkpt lat="51.227251875488" lon="4.46624847636">
        <ele>15.8</ele>
        <time>2019-01-26T12:09:56Z</time>
      </trkpt>
      <trkpt lat="51.227433343623" lon="4.466387112986">
        <ele>20</ele>
        <time>2019-01-26T12:10:02Z</time>
      </trkpt>
      <trkpt lat="51.227601149261" lon="4.466551817321">
        <ele>18.4</ele>
        <time>2019-01-26T12:10:08Z</time>
      </trkpt>
      <trkpt lat="51.227778510265" lon="4.466651729569">
        <ele>14.2</ele>
        <time>2019-01-26T12:10:14Z</time>
      </trkpt>
      <trkpt lat="51.227952937604" lon="4.466757173871">
        <ele>11.2</ele>
        <time>2019-01-26T12:10:20Z</time>
      </trkpt>
      <trkpt lat="51.228119485957" lon="4.466884914027">
        <ele>9</ele>
        <time>2019-01-26T12:10:27Z</time>
      </trkpt>
      <trkpt lat="51.228285028482" lon="4.467023885929">
        <ele>6.4</ele>
        <time>2019-01-26T12:10:35Z</time>
      </trkpt>
      <trkpt lat="51.228465658427" lon="4.467152631913">
        <ele>5.4</ele>
        <time>2019-01-26T12:10:42Z</time>
      </trkpt>
      <trkpt lat="51.228652993892" lon="4.467275426748">
        <ele>9.2</ele>
        <time>2019-01-26T12:10:50Z</time>
      </trkpt>
      <trkpt lat="51.228847789248" lon="4.467400400877">
        <ele>8.4</ele>
        <time>2019-01-26T12:10:58Z</time>
      </trkpt>
      <trkpt lat="51.229035879084" lon="4.467485393343">
        <ele>5.2</ele>
        <time>2019-01-26T12:11:05Z</time>
      </trkpt>
      <trkpt lat="51.229221538169" lon="4.467546916489">
        <ele>4</ele>
        <time>2019-01-26T12:11:12Z</time>
      </trkpt>
      <trkpt lat="51.229403844494" lon="4.46760382959">
        <ele>2.6</ele>
        <time>2019-01-26T12:11:18Z</time>
      </trkpt>
      <trkpt lat="51.229591682873" lon="4.467581030822">
        <ele>0.4</ele>
        <time>2019-01-26T12:11:24Z</time>
      </trkpt>
      <trkpt lat="51.229787735514" lon="4.467522776617">
        <ele>0</ele>
        <time>2019-01-26T12:11:31Z</time>
      </trkpt>
      <trkpt lat="51.229975154798" lon="4.467449183535">
        <ele>0</ele>
        <time>2019-01-26T12:11:39Z</time>
      </trkpt>
      <trkpt lat="51.230152934897" lon="4.467395455556">
        <ele>1.4</ele>
        <time>2019-01-26T12:11:46Z</time>
      </trkpt>
      <trkpt lat="51.230341946742" lon="4.46732974146">
        <ele>3</ele>
        <time>2019-01-26T12:11:54Z</time>
      </trkpt>
      <trkpt lat="51.230548979672" lon="4.46727861187">
        <ele>2.8</ele>
        <time>2019-01-26T12:12:01Z</time>
      </trkpt>
      <trkpt lat="51.230731369816" lon="4.467211808127">
        <ele>1.4</ele>
        <time>2019-01-26T12:12:08Z</time>
      </trkpt>
      <trkpt lat="51.230934127977" lon="4.46713528138">
        <ele>3.6</ele>
        <time>2019-01-26T12:12:15Z</time>
      </trkpt>
      <trkpt lat="51.231100257235" lon="4.467031513458">
        <ele>3.4</ele>
        <time>2019-01-26T12:12:22Z</time>
      </trkpt>
      <trkpt lat="51.231222381518" lon="4.466811153307">
        <ele>3.2</ele>
        <time>2019-01-26T12:12:29Z</time>
      </trkpt>
      <trkpt lat="51.231334698978" lon="4.466543016326">
        <ele>4.2</ele>
        <time>2019-01-26T12:12:37Z</time>
      </trkpt>
      <trkpt lat="51.231440897651" lon="4.466298516303">
        <ele>5.2</ele>
        <time>2019-01-26T12:12:44Z</time>
      </trkpt>
      <trkpt lat="51.23153653513" lon="4.46604898714">
        <ele>4.6</ele>
        <time>2019-01-26T12:12:51Z</time>
      </trkpt>
      <trkpt lat="51.231633094618" lon="4.465799709434">
        <ele>3</ele>
        <time>2019-01-26T12:12:58Z</time>
      </trkpt>
      <trkpt lat="51.231761337688" lon="4.465516904128">
        <ele>4</ele>
        <time>2019-01-26T12:13:06Z</time>
      </trkpt>
      <trkpt lat="51.231909613499" lon="4.465299896737">
        <ele>5.4</ele>
        <time>2019-01-26T12:13:13Z</time>
      </trkpt>
      <trkpt lat="51.231977087794" lon="4.46509093597">
        <ele>4</ele>
        <time>2019-01-26T12:13:19Z</time>
      </trkpt>
      <trkpt lat="51.231840462824" lon="4.464903516686">
        <ele>1.2</ele>
        <time>2019-01-26T12:13:27Z</time>
      </trkpt>
      <trkpt lat="51.231680452353" lon="4.464751301382">
        <ele>0</ele>
        <time>2019-01-26T12:13:34Z</time>
      </trkpt>
      <trkpt lat="51.231514239276" lon="4.464592883472">
        <ele>0.6</ele>
        <time>2019-01-26T12:13:42Z</time>
      </trkpt>
      <trkpt lat="51.231347271828" lon="4.464456342321">
        <ele>0.2</ele>
        <time>2019-01-26T12:13:50Z</time>
      </trkpt>
      <trkpt lat="51.231323299594" lon="4.464407978758">
        <ele>0</ele>
        <time>2019-01-26T12:13:52Z</time>
      </trkpt>
      <trkpt lat="51.231302177206" lon="4.464088125454">
        <ele>0</ele>
        <time>2019-01-26T12:14:00Z</time>
      </trkpt>
      <trkpt lat="51.231299914093" lon="4.463763662105">
        <ele>0</ele>
        <time>2019-01-26T12:14:08Z</time>
      </trkpt>
      <trkpt lat="51.231430168819" lon="4.463529388">
        <ele>0</ele>
        <time>2019-01-26T12:14:15Z</time>
      </trkpt>
      <trkpt lat="51.231539217338" lon="4.463273991507">
        <ele>0</ele>
        <time>2019-01-26T12:14:22Z</time>
      </trkpt>
      <trkpt lat="51.231617420465" lon="4.463142479496">
        <ele>0</ele>
        <time>2019-01-26T12:14:27Z</time>
      </trkpt>
      <trkpt lat="51.231580707743" lon="4.462851124652">
        <ele>0</ele>
        <time>2019-01-26T12:14:34Z</time>
      </trkpt>
      <trkpt lat="51.231570230368" lon="4.462549627709">
        <ele>1.8</ele>
        <time>2019-01-26T12:14:42Z</time>
      </trkpt>
      <trkpt lat="51.231615241171" lon="4.462256093571">
        <ele>7</ele>
        <time>2019-01-26T12:14:50Z</time>
      </trkpt>
      <trkpt lat="51.23161532499" lon="4.461949316031">
        <ele>7.8</ele>
        <time>2019-01-26T12:14:58Z</time>
      </trkpt>
      <trkpt lat="51.231529326696" lon="4.461704061637">
        <ele>7</ele>
        <time>2019-01-26T12:15:06Z</time>
      </trkpt>
      <trkpt lat="51.231345511629" lon="4.46165687154">
        <ele>6.6</ele>
        <time>2019-01-26T12:15:14Z</time>
      </trkpt>
      <trkpt lat="51.231280132809" lon="4.46138445979">
        <ele>7.6</ele>
        <time>2019-01-26T12:15:21Z</time>
      </trkpt>
      <trkpt lat="51.231232607436" lon="4.461095451878">
        <ele>8.2</ele>
        <time>2019-01-26T12:15:28Z</time>
      </trkpt>
      <trkpt lat="51.23127334347" lon="4.460800828093">
        <ele>8.4</ele>
        <time>2019-01-26T12:15:35Z</time>
      </trkpt>
      <trkpt lat="51.231180388199" lon="4.460523554841">
        <ele>4.4</ele>
        <time>2019-01-26T12:15:42Z</time>
      </trkpt>
      <trkpt lat="51.231099083769" lon="4.460255250222">
        <ele>6.2</ele>
        <time>2019-01-26T12:15:49Z</time>
      </trkpt>
      <trkpt lat="51.231056419898" lon="4.45997797697">
        <ele>7.4</ele>
        <time>2019-01-26T12:15:56Z</time>
      </trkpt>
      <trkpt lat="51.231090785688" lon="4.459729118359">
        <ele>4.6</ele>
        <time>2019-01-26T12:16:03Z</time>
      </trkpt>
      <trkpt lat="51.231288598528" lon="4.45967455219">
        <ele>4.2</ele>
        <time>2019-01-26T12:16:10Z</time>
      </trkpt>
      <trkpt lat="51.231476688364" lon="4.459669355412">
        <ele>2.6</ele>
        <time>2019-01-26T12:16:16Z</time>
      </trkpt>
      <trkpt lat="51.231627730202" lon="4.459607832266">
        <ele>0</ele>
        <time>2019-01-26T12:16:22Z</time>
      </trkpt>
      <trkpt lat="51.231637285568" lon="4.459531137881">
        <ele>0</ele>
        <time>2019-01-26T12:16:24Z</time>
      </trkpt>
      <trkpt lat="51.2315809592" lon="4.459243303435">
        <ele>0</ele>
        <time>2019-01-26T12:16:31Z</time>
      </trkpt>
      <trkpt lat="51.231518514045" lon="4.458946248899">
        <ele>0</ele>
        <time>2019-01-26T12:16:38Z</time>
      </trkpt>
      <trkpt lat="51.231443244583" lon="4.458659085005">
        <ele>0</ele>
        <time>2019-01-26T12:16:45Z</time>
      </trkpt>
      <trkpt lat="51.231402005635" lon="4.458444340727">
        <ele>0</ele>
        <time>2019-01-26T12:16:51Z</time>
      </trkpt>
      <trkpt lat="51.231230260504" lon="4.458540564939">
        <ele>0</ele>
        <time>2019-01-26T12:16:59Z</time>
      </trkpt>
      <trkpt lat="51.231053989147" lon="4.458657240987">
        <ele>0</ele>
        <time>2019-01-26T12:17:07Z</time>
      </trkpt>
      <trkpt lat="51.230874616487" lon="4.458703006161">
        <ele>0</ele>
        <time>2019-01-26T12:17:14Z</time>
      </trkpt>
      <trkpt lat="51.230690298506" lon="4.45875002862">
        <ele>0.8</ele>
        <time>2019-01-26T12:17:22Z</time>
      </trkpt>
      <trkpt lat="51.230505142335" lon="4.458806438807">
        <ele>4.4</ele>
        <time>2019-01-26T12:17:29Z</time>
      </trkpt>
      <trkpt lat="51.230339683629" lon="4.458925545606">
        <ele>4.4</ele>
        <time>2019-01-26T12:17:36Z</time>
      </trkpt>
      <trkpt lat="51.230153102535" lon="4.458992097892">
        <ele>5.4</ele>
        <time>2019-01-26T12:17:44Z</time>
      </trkpt>
      <trkpt lat="51.229964677423" lon="4.459022943284">
        <ele>4</ele>
        <time>2019-01-26T12:17:51Z</time>
      </trkpt>
      <trkpt lat="51.229766361669" lon="4.459053537219">
        <ele>4.8</ele>
        <time>2019-01-26T12:17:59Z</time>
      </trkpt>
      <trkpt lat="51.229576595453" lon="4.459119083677">
        <ele>4.8</ele>
        <time>2019-01-26T12:18:06Z</time>
      </trkpt>
      <trkpt lat="51.22936897579" lon="4.459163423928">
        <ele>0.2</ele>
        <time>2019-01-26T12:18:13Z</time>
      </trkpt>
      <trkpt lat="51.229165798534" lon="4.459217151907">
        <ele>0</ele>
        <time>2019-01-26T12:18:20Z</time>
      </trkpt>
      <trkpt lat="51.228985839141" lon="4.459233412793">
        <ele>0</ele>
        <time>2019-01-26T12:18:27Z</time>
      </trkpt>
      <trkpt lat="51.228782158971" lon="4.459181947927">
        <ele>0</ele>
        <time>2019-01-26T12:18:36Z</time>
      </trkpt>
      <trkpt lat="51.228653329168" lon="4.459003329638">
        <ele>0</ele>
        <time>2019-01-26T12:18:43Z</time>
      </trkpt>
      <trkpt lat="51.228572779109" lon="4.458542660414">
        <ele>7.2</ele>
        <time>2019-01-26T12:18:55Z</time>
      </trkpt>
      <trkpt lat="51.228519470225" lon="4.458236301969">
        <ele>7</ele>
        <time>2019-01-26T12:19:03Z</time>
      </trkpt>
      <trkpt lat="51.228491055584" lon="4.457931703723">
        <ele>12</ele>
        <time>2019-01-26T12:19:12Z</time>
      </trkpt>
      <trkpt lat="51.228451073921" lon="4.457620064681">
        <ele>13.4</ele>
        <time>2019-01-26T12:19:21Z</time>
      </trkpt>
      <trkpt lat="51.228449648998" lon="4.457385622938">
        <ele>12.2</ele>
        <time>2019-01-26T12:19:27Z</time>
      </trkpt>
      <trkpt lat="51.228614856247" lon="4.457216895291">
        <ele>9</ele>
        <time>2019-01-26T12:19:35Z</time>
      </trkpt>
      <trkpt lat="51.228802610807" lon="4.457058812657">
        <ele>10</ele>
        <time>2019-01-26T12:19:43Z</time>
      </trkpt>
      <trkpt lat="51.228983827485" lon="4.456956134382">
        <ele>11.2</ele>
        <time>2019-01-26T12:19:50Z</time>
      </trkpt>
      <trkpt lat="51.229156326987" lon="4.456848929881">
        <ele>10.6</ele>
        <time>2019-01-26T12:19:57Z</time>
      </trkpt>
      <trkpt lat="51.229337543665" lon="4.45673837262">
        <ele>14.2</ele>
        <time>2019-01-26T12:20:04Z</time>
      </trkpt>
      <trkpt lat="51.229512222461" lon="4.45664030439">
        <ele>14.6</ele>
        <time>2019-01-26T12:20:12Z</time>
      </trkpt>
      <trkpt lat="51.229706095808" lon="4.456623624409">
        <ele>21.4</ele>
        <time>2019-01-26T12:20:18Z</time>
      </trkpt>
      <trkpt lat="51.229849174841" lon="4.456784221613">
        <ele>26.6</ele>
        <time>2019-01-26T12:20:24Z</time>
      </trkpt>
      <trkpt lat="51.229896281119" lon="4.457095525379">
        <ele>20.2</ele>
        <time>2019-01-26T12:20:30Z</time>
      </trkpt>
      <trkpt lat="51.229872141247" lon="4.457426191334">
        <ele>2.6</ele>
        <time>2019-01-26T12:20:36Z</time>
      </trkpt>
      <trkpt lat="51.229920923905" lon="4.457707068803">
        <ele>0</ele>
        <time>2019-01-26T12:20:44Z</time>
      </trkpt>
      <trkpt lat="51.230127621559" lon="4.457671110452">
        <ele>0</ele>
        <time>2019-01-26T12:20:53Z</time>
      </trkpt>
      <trkpt lat="51.230310346979" lon="4.457652586453">
        <ele>0</ele>
        <time>2019-01-26T12:21:00Z</time>
      </trkpt>
      <trkpt lat="51.230502292489" lon="4.457636744662">
        <ele>0</ele>
        <time>2019-01-26T12:21:08Z</time>
      </trkpt>
      <trkpt lat="51.230702033166" lon="4.45763104497">
        <ele>0</ele>
        <time>2019-01-26T12:21:17Z</time>
      </trkpt>
      <trkpt lat="51.230885177681" lon="4.457580585932">
        <ele>0</ele>
        <time>2019-01-26T12:21:24Z</time>
      </trkpt>
      <trkpt lat="51.231072764603" lon="4.457535323672">
        <ele>0</ele>
        <time>2019-01-26T12:21:31Z</time>
      </trkpt>
      <trkpt lat="51.231122301632" lon="4.45756231339">
        <ele>0.2</ele>
        <time>2019-01-26T12:21:32Z</time>
      </trkpt>
      <trkpt lat="51.231135377396" lon="4.457595421895">
        <ele>0</ele>
        <time>2019-01-26T12:21:34Z</time>
      </trkpt>
      <trkpt lat="51.231196397628" lon="4.457898259942">
        <ele>2</ele>
        <time>2019-01-26T12:21:42Z</time>
      </trkpt>
      <trkpt lat="51.231243000992" lon="4.45819430865">
        <ele>2.4</ele>
        <time>2019-01-26T12:21:51Z</time>
      </trkpt>
      <trkpt lat="51.231207294098" lon="4.4584499566">
        <ele>0</ele>
        <time>2019-01-26T12:22:00Z</time>
      </trkpt>
      <trkpt lat="51.231023395212" lon="4.458538050369">
        <ele>1.4</ele>
        <time>2019-01-26T12:22:09Z</time>
      </trkpt>
      <trkpt lat="51.230840502154" lon="4.458600579343">
        <ele>0</ele>
        <time>2019-01-26T12:22:17Z</time>
      </trkpt>
      <trkpt lat="51.230652412318" lon="4.458668975647">
        <ele>0.6</ele>
        <time>2019-01-26T12:22:26Z</time>
      </trkpt>
      <trkpt lat="51.230457868419" lon="4.458714657002">
        <ele>1.2</ele>
        <time>2019-01-26T12:22:35Z</time>
      </trkpt>
      <trkpt lat="51.230270113859" lon="4.458761428004">
        <ele>0.8</ele>
        <time>2019-01-26T12:22:43Z</time>
      </trkpt>
      <trkpt lat="51.230091579389" lon="4.458815239802">
        <ele>0</ele>
        <time>2019-01-26T12:22:52Z</time>
      </trkpt>
      <trkpt lat="51.229895526748" lon="4.458828650842">
        <ele>0</ele>
        <time>2019-01-26T12:23:01Z</time>
      </trkpt>
      <trkpt lat="51.229721686142" lon="4.458911966928">
        <ele>0</ele>
        <time>2019-01-26T12:23:09Z</time>
      </trkpt>
      <trkpt lat="51.229532590478" lon="4.458977010472">
        <ele>0</ele>
        <time>2019-01-26T12:23:16Z</time>
      </trkpt>
      <trkpt lat="51.229336202561" lon="4.458997210851">
        <ele>0</ele>
        <time>2019-01-26T12:23:24Z</time>
      </trkpt>
      <trkpt lat="51.229150124381" lon="4.459026463682">
        <ele>0</ele>
        <time>2019-01-26T12:23:32Z</time>
      </trkpt>
      <trkpt lat="51.22896413002" lon="4.459073150865">
        <ele>0</ele>
        <time>2019-01-26T12:23:40Z</time>
      </trkpt>
      <trkpt lat="51.228769502302" lon="4.459107265198">
        <ele>0</ele>
        <time>2019-01-26T12:23:48Z</time>
      </trkpt>
      <trkpt lat="51.228657268661" lon="4.459081616584">
        <ele>0</ele>
        <time>2019-01-26T12:23:53Z</time>
      </trkpt>
      <trkpt lat="51.228646372191" lon="4.459021015447">
        <ele>0</ele>
        <time>2019-01-26T12:23:55Z</time>
      </trkpt>
      <trkpt lat="51.228603373044" lon="4.458713734993">
        <ele>0</ele>
        <time>2019-01-26T12:24:03Z</time>
      </trkpt>
      <trkpt lat="51.228567917607" lon="4.458392037671">
        <ele>0</ele>
        <time>2019-01-26T12:24:11Z</time>
      </trkpt>
      <trkpt lat="51.228591219289" lon="4.458265051886">
        <ele>0</ele>
        <time>2019-01-26T12:24:15Z</time>
      </trkpt>
      <trkpt lat="51.228777800383" lon="4.458199840704">
        <ele>0</ele>
        <time>2019-01-26T12:24:24Z</time>
      </trkpt>
      <trkpt lat="51.228960358165" lon="4.458148459657">
        <ele>0</ele>
        <time>2019-01-26T12:24:32Z</time>
      </trkpt>
      <trkpt lat="51.229154985883" lon="4.458092552384">
        <ele>0.6</ele>
        <time>2019-01-26T12:24:40Z</time>
      </trkpt>
      <trkpt lat="51.229339303864" lon="4.45798727572">
        <ele>0.6</ele>
        <time>2019-01-26T12:24:49Z</time>
      </trkpt>
      <trkpt lat="51.229522448379" lon="4.457913682638">
        <ele>4</ele>
        <time>2019-01-26T12:24:57Z</time>
      </trkpt>
      <trkpt lat="51.229722608151" lon="4.457822236109">
        <ele>2.8</ele>
        <time>2019-01-26T12:25:05Z</time>
      </trkpt>
      <trkpt lat="51.229903824829" lon="4.457809160345">
        <ele>2.4</ele>
        <time>2019-01-26T12:25:12Z</time>
      </trkpt>
      <trkpt lat="51.230098452547" lon="4.457743446249">
        <ele>0</ele>
        <time>2019-01-26T12:25:21Z</time>
      </trkpt>
      <trkpt lat="51.230281094148" lon="4.457683934759">
        <ele>0</ele>
        <time>2019-01-26T12:25:28Z</time>
      </trkpt>
      <trkpt lat="51.230378659464" lon="4.457664907846">
        <ele>0</ele>
        <time>2019-01-26T12:25:32Z</time>
      </trkpt>
    </trkseg>
  </trk>
</gpx>